Time;durP1;ratioP1;P1;durP2;ratioP2;P2;SDS_P1;SDS_P2;PMS_P1;PMS_P2;Temp;Humidity;BMP_temperature;BMP_pressure;BME280_temperature;BME280_humidity;BME280_pressure;Samples;Min_cycle;Max_cycle;Signal;HPM_P1;HPM_P2
2021/06/27 00:01:47;;;;;;;26.30;14.00;;;;;;;;;;5047627;28;20037;-57
2021/06/27 00:04:17;;;;;;;31.08;13.98;;;;;;;;;;5060932;28;20098;-57
2021/06/27 00:06:44;;;;;;;24.52;13.38;;;;;;;;;;5059772;28;20037;-57
2021/06/27 00:09:14;;;;;;;25.92;14.95;;;;;;;;;;5046951;28;20052;-57
2021/06/27 00:11:40;;;;;;;29.83;14.32;;;;;;;;;;5057350;28;20053;-57
2021/06/27 00:14:07;;;;;;;22.42;14.05;;;;;;;;;;5064674;28;20036;-57
2021/06/27 00:16:34;;;;;;;27.73;15.48;;;;;;;;;;5060733;28;20049;-57
2021/06/27 00:19:01;;;;;;;24.90;14.18;;;;;;;;;;5065579;28;20032;-57
2021/06/27 00:21:28;;;;;;;25.67;14.18;;;;;;;;;;5080695;28;20121;-57
2021/06/27 00:23:57;;;;;;;27.95;14.88;;;;;;;;;;5043178;28;20056;-57
2021/06/27 00:26:26;;;;;;;24.08;13.55;;;;;;;;;;5040134;28;20037;-57
2021/06/27 00:28:52;;;;;;;27.42;13.73;;;;;;;;;;5032181;28;20128;-57
2021/06/27 00:31:20;;;;;;;27.58;13.95;;;;;;;;;;5005237;28;20061;-56
2021/06/27 00:33:48;;;;;;;25.35;14.40;;;;;;;;;;5010840;28;20097;-56
2021/06/27 00:36:15;;;;;;;24.10;13.63;;;;;;;;;;5002402;28;20166;-57
2021/06/27 00:38:41;;;;;;;25.58;14.18;;;;;;;;;;4999537;28;20042;-57
2021/06/27 00:41:08;;;;;;;30.45;14.80;;;;;;;;;;5019420;28;20041;-57
2021/06/27 00:43:37;;;;;;;23.75;14.55;;;;;;;;;;5031219;28;20036;-57
2021/06/27 00:46:04;;;;;;;26.80;14.35;;;;;;;;;;5042055;28;20095;-57
2021/06/27 00:48:30;;;;;;;28.00;15.43;;;;;;;;;;5033007;28;20041;-58
2021/06/27 00:50:58;;;;;;;26.88;14.40;;;;;;;;;;5024755;28;20042;-58
2021/06/27 00:53:24;;;;;;;27.05;14.27;;;;;;;;;;5027364;28;20056;-57
2021/06/27 00:55:55;;;;;;;25.98;13.90;;;;;;;;;;5042814;28;20057;-57
2021/06/27 00:58:24;;;;;;;23.63;14.48;;;;;;;;;;5054919;28;20041;-58
2021/06/27 01:00:52;;;;;;;22.58;13.85;;;;;;;;;;5024776;28;20030;-57
2021/06/27 01:03:21;;;;;;;27.08;14.55;;;;;;;;;;5020059;28;20065;-57
2021/06/27 01:05:47;;;;;;;24.40;13.48;;;;;;;;;;5023073;28;20060;-57
2021/06/27 01:08:14;;;;;;;25.95;14.25;;;;;;;;;;5024551;28;20053;-57
2021/06/27 01:10:41;;;;;;;29.25;14.57;;;;;;;;;;5034897;28;20120;-57
2021/06/27 01:13:08;;;;;;;25.67;14.48;;;;;;;;;;5027567;28;20041;-57
2021/06/27 01:15:34;;;;;;;27.40;14.38;;;;;;;;;;5023578;28;20120;-57
2021/06/27 01:18:02;;;;;;;32.22;14.43;;;;;;;;;;5018950;28;20038;-58
2021/06/27 01:20:30;;;;;;;24.75;13.77;;;;;;;;;;5017388;28;20049;-57
2021/06/27 01:22:59;;;;;;;29.17;15.30;;;;;;;;;;5022977;28;20056;-56
2021/06/27 01:25:27;;;;;;;27.35;15.10;;;;;;;;;;5034336;28;20076;-56
2021/06/27 01:27:54;;;;;;;28.05;15.88;;;;;;;;;;5043452;28;20037;-57
2021/06/27 01:30:21;;;;;;;26.63;15.13;;;;;;;;;;5037792;28;20037;-57
2021/06/27 01:32:48;;;;;;;26.67;15.75;;;;;;;;;;5044020;28;20056;-57
2021/06/27 01:35:16;;;;;;;29.30;15.73;;;;;;;;;;5031507;28;20045;-57
2021/06/27 01:37:43;;;;;;;24.63;15.05;;;;;;;;;;5023678;28;20098;-57
2021/06/27 01:40:12;;;;;;;29.52;16.10;;;;;;;;;;5026665;28;20041;-57
2021/06/27 01:42:39;;;;;;;30.77;15.07;;;;;;;;;;5042107;28;20040;-56
2021/06/27 01:45:14;;;;;;;32.47;15.63;;;;;;;;;;5039707;28;20033;-57
2021/06/27 01:47:41;;;;;;;29.40;15.27;;;;;;;;;;5042424;28;20045;-57
2021/06/27 01:50:08;;;;;;;31.08;16.67;;;;;;;;;;5037452;28;20037;-57
2021/06/27 01:52:35;;;;;;;31.52;17.77;;;;;;;;;;5024701;28;20135;-55
2021/06/27 01:55:01;;;;;;;30.58;17.02;;;;;;;;;;5022331;28;20085;-57
2021/06/27 01:57:29;;;;;;;32.25;17.45;;;;;;;;;;5022964;28;20049;-56
2021/06/27 01:59:55;;;;;;;32.33;16.60;;;;;;;;;;5022368;28;20038;-57
2021/06/27 02:02:22;;;;;;;34.80;17.20;;;;;;;;;;5037291;28;20045;-58
2021/06/27 02:04:49;;;;;;;33.60;18.25;;;;;;;;;;5042443;28;20056;-56
2021/06/27 02:07:15;;;;;;;30.85;17.13;;;;;;;;;;5024608;28;20139;-57
2021/06/27 02:09:42;;;;;;;33.33;16.67;;;;;;;;;;5033055;28;20045;-57
2021/06/27 02:12:09;;;;;;;32.13;16.52;;;;;;;;;;5027613;28;20034;-57
2021/06/27 02:14:37;;;;;;;30.08;16.90;;;;;;;;;;5010225;28;20034;-55
2021/06/27 02:17:04;;;;;;;29.92;16.55;;;;;;;;;;5022174;28;20041;-57
2021/06/27 02:19:31;;;;;;;36.25;16.02;;;;;;;;;;5060219;28;20033;-56
2021/06/27 02:21:57;;;;;;;29.45;15.43;;;;;;;;;;5055803;28;20037;-57
2021/06/27 02:24:24;;;;;;;30.27;16.95;;;;;;;;;;5062012;28;20033;-57
2021/06/27 02:26:50;;;;;;;31.75;16.55;;;;;;;;;;5040759;28;20115;-59
2021/06/27 02:29:17;;;;;;;29.50;16.05;;;;;;;;;;5042486;28;20045;-57
2021/06/27 02:31:49;;;;;;;31.65;16.25;;;;;;;;;;5040313;28;20061;-57
2021/06/27 02:34:17;;;;;;;32.83;17.58;;;;;;;;;;5061197;28;20045;-57
2021/06/27 02:36:43;;;;;;;36.97;17.45;;;;;;;;;;5057655;28;20040;-57
2021/06/27 02:39:10;;;;;;;36.85;17.80;;;;;;;;;;5026962;28;20053;-56
2021/06/27 02:41:36;;;;;;;36.40;18.55;;;;;;;;;;5038206;28;20037;-56
2021/06/27 02:44:03;;;;;;;30.67;17.95;;;;;;;;;;5024773;28;20059;-57
2021/06/27 02:46:30;;;;;;;33.13;17.98;;;;;;;;;;5037798;28;20042;-57
2021/06/27 02:48:58;;;;;;;33.35;17.13;;;;;;;;;;5045864;28;20048;-57
2021/06/27 02:51:24;;;;;;;31.95;17.13;;;;;;;;;;5048015;28;20030;-57
2021/06/27 02:53:51;;;;;;;30.42;16.95;;;;;;;;;;5014810;28;20061;-57
2021/06/27 02:56:18;;;;;;;35.65;19.33;;;;;;;;;;5041213;28;20045;-57
2021/06/27 02:58:46;;;;;;;36.17;17.75;;;;;;;;;;5040097;28;20033;-57
2021/06/27 03:03:50;;;;;;;31.30;16.67;;;;;;;;;;5031844;28;20029;-57
2021/06/27 03:06:18;;;;;;;29.13;16.50;;;;;;;;;;5058994;28;20054;-57
2021/06/27 03:08:45;;;;;;;36.40;16.98;;;;;;;;;;5018885;28;20110;-57
2021/06/27 03:11:11;;;;;;;34.80;18.02;;;;;;;;;;5023393;28;20102;-56
2021/06/27 03:13:40;;;;;;;34.88;19.73;;;;;;;;;;5021820;28;20041;-57
2021/06/27 03:16:07;;;;;;;32.95;17.95;;;;;;;;;;5023383;28;20045;-60
2021/06/27 03:18:34;;;;;;;43.15;18.35;;;;;;;;;;5023710;28;20129;-58
2021/06/27 03:21:00;;;;;;;37.63;19.33;;;;;;;;;;5018106;28;20057;-60
2021/06/27 03:23:29;;;;;;;36.28;18.05;;;;;;;;;;5023475;28;20111;-60
2021/06/27 03:25:56;;;;;;;35.05;19.65;;;;;;;;;;5018700;28;20116;-60
2021/06/27 03:28:22;;;;;;;36.08;18.88;;;;;;;;;;5024461;28;20176;-60
2021/06/27 03:30:49;;;;;;;36.88;19.33;;;;;;;;;;5021320;28;20060;-59
2021/06/27 03:33:16;;;;;;;34.03;16.55;;;;;;;;;;5022716;28;20049;-60
2021/06/27 03:35:43;;;;;;;42.25;19.30;;;;;;;;;;5024513;28;20045;-59
2021/06/27 03:38:15;;;;;;;34.15;18.75;;;;;;;;;;5020838;28;20045;-60
2021/06/27 03:40:43;;;;;;;35.60;16.83;;;;;;;;;;5024799;28;20045;-59
2021/06/27 03:43:12;;;;;;;37.53;18.27;;;;;;;;;;5020432;28;20037;-60
2021/06/27 03:45:38;;;;;;;32.50;18.08;;;;;;;;;;5025028;28;20041;-59
2021/06/27 03:48:05;;;;;;;35.47;17.35;;;;;;;;;;5020505;28;20060;-59
2021/06/27 03:50:32;;;;;;;35.20;19.60;;;;;;;;;;5023044;28;20047;-56
2021/06/27 03:52:59;;;;;;;33.22;17.85;;;;;;;;;;5022125;28;20053;-57
2021/06/27 03:55:25;;;;;;;35.97;18.65;;;;;;;;;;5022151;28;20056;-59
2021/06/27 03:57:53;;;;;;;35.13;18.38;;;;;;;;;;5005557;28;20057;-59
2021/06/27 04:00:20;;;;;;;36.10;17.43;;;;;;;;;;5016534;28;20136;-58
2021/06/27 04:02:49;;;;;;;35.75;17.70;;;;;;;;;;5025551;28;20274;-58
2021/06/27 04:05:15;;;;;;;33.30;17.80;;;;;;;;;;5037643;28;20049;-59
2021/06/27 04:07:42;;;;;;;38.00;18.27;;;;;;;;;;5024626;28;20038;-58
2021/06/27 04:10:11;;;;;;;32.83;17.60;;;;;;;;;;5011672;28;20064;-59
2021/06/27 04:12:39;;;;;;;36.25;19.90;;;;;;;;;;5019429;28;20037;-59
2021/06/27 04:15:08;;;;;;;40.15;18.30;;;;;;;;;;5023537;28;20041;-58
2021/06/27 04:17:35;;;;;;;34.50;17.15;;;;;;;;;;5021109;28;20056;-59
2021/06/27 04:20:01;;;;;;;31.38;16.67;;;;;;;;;;5024988;28;20052;-59
2021/06/27 04:22:30;;;;;;;34.30;16.85;;;;;;;;;;5022249;28;20060;-59
2021/06/27 04:24:56;;;;;;;35.10;17.65;;;;;;;;;;5044606;28;20115;-59
2021/06/27 04:27:23;;;;;;;36.78;18.20;;;;;;;;;;5040603;28;20049;-59
2021/06/27 04:29:49;;;;;;;32.63;17.20;;;;;;;;;;5027399;28;20045;-59
2021/06/27 04:32:17;;;;;;;34.75;17.10;;;;;;;;;;5041517;28;20033;-59
2021/06/27 04:34:44;;;;;;;34.22;17.73;;;;;;;;;;5028284;28;20159;-59
2021/06/27 04:37:10;;;;;;;35.25;16.60;;;;;;;;;;5043592;28;20055;-60
2021/06/27 04:39:37;;;;;;;36.83;16.08;;;;;;;;;;5027416;28;20041;-59
2021/06/27 04:42:03;;;;;;;34.97;17.60;;;;;;;;;;5022980;28;20080;-59
2021/06/27 04:44:30;;;;;;;34.28;17.60;;;;;;;;;;5026878;28;20044;-59
2021/06/27 04:46:57;;;;;;;36.55;17.42;;;;;;;;;;5025676;28;20038;-59
2021/06/27 04:49:24;;;;;;;31.67;16.05;;;;;;;;;;5040818;28;20034;-60
2021/06/27 04:51:51;;;;;;;29.20;15.32;;;;;;;;;;5025615;28;20045;-59
2021/06/27 04:54:19;;;;;;;30.83;15.57;;;;;;;;;;5042156;28;20049;-58
2021/06/27 04:56:45;;;;;;;29.67;15.70;;;;;;;;;;5025801;28;20041;-59
2021/06/27 04:59:12;;;;;;;29.38;15.98;;;;;;;;;;5022066;28;20130;-59
2021/06/27 05:01:39;;;;;;;31.08;15.02;;;;;;;;;;5027967;28;20045;-59
2021/06/27 05:04:05;;;;;;;28.75;15.15;;;;;;;;;;5019489;28;20054;-59
2021/06/27 05:06:33;;;;;;;29.23;14.68;;;;;;;;;;5022609;28;20042;-59
2021/06/27 05:08:59;;;;;;;27.00;14.10;;;;;;;;;;5019680;28;20042;-59
2021/06/27 05:11:26;;;;;;;26.27;13.63;;;;;;;;;;5021871;28;20045;-59
2021/06/27 05:13:52;;;;;;;26.30;14.73;;;;;;;;;;5017870;28;20026;-59
2021/06/27 05:16:19;;;;;;;26.08;14.20;;;;;;;;;;5022867;28;20065;-57
2021/06/27 05:18:45;;;;;;;25.08;14.10;;;;;;;;;;5019970;28;20096;-59
2021/06/27 05:21:12;;;;;;;25.48;13.60;;;;;;;;;;5022375;28;20065;-59
2021/06/27 05:23:41;;;;;;;27.95;14.63;;;;;;;;;;5019766;28;20085;-57
2021/06/27 05:26:07;;;;;;;26.95;13.50;;;;;;;;;;5023695;28;20049;-59
2021/06/27 05:28:34;;;;;;;31.67;14.00;;;;;;;;;;5022220;28;20073;-58
2021/06/27 05:31:00;;;;;;;23.35;13.45;;;;;;;;;;5021521;28;20030;-59
2021/06/27 05:33:27;;;;;;;25.70;13.88;;;;;;;;;;5022679;28;20190;-58
2021/06/27 05:35:54;;;;;;;29.50;14.63;;;;;;;;;;5020644;28;20160;-60
2021/06/27 05:38:20;;;;;;;25.73;13.23;;;;;;;;;;5024236;28;20030;-59
2021/06/27 05:40:48;;;;;;;27.63;13.68;;;;;;;;;;5019135;28;20116;-59
2021/06/27 05:43:18;;;;;;;24.03;12.83;;;;;;;;;;5019864;28;20123;-59
2021/06/27 05:45:44;;;;;;;26.33;13.00;;;;;;;;;;5018762;28;20290;-58
2021/06/27 05:48:11;;;;;;;22.88;12.13;;;;;;;;;;5022503;28;20044;-58
2021/06/27 05:50:37;;;;;;;25.40;13.65;;;;;;;;;;5016332;28;20123;-59
2021/06/27 05:53:05;;;;;;;24.65;12.38;;;;;;;;;;5019876;28;20042;-59
2021/06/27 05:55:33;;;;;;;21.63;12.32;;;;;;;;;;5019667;28;20053;-59
2021/06/27 05:58:00;;;;;;;22.80;11.93;;;;;;;;;;5021139;28;20049;-59
2021/06/27 06:00:27;;;;;;;21.95;11.93;;;;;;;;;;5018058;28;20048;-58
2021/06/27 06:02:54;;;;;;;22.40;11.93;;;;;;;;;;5021200;28;20168;-60
2021/06/27 06:05:20;;;;;;;22.10;11.35;;;;;;;;;;4992903;28;20128;-57
2021/06/27 06:07:47;;;;;;;21.05;11.55;;;;;;;;;;5004147;28;20086;-59
2021/06/27 06:10:14;;;;;;;21.40;11.20;;;;;;;;;;5013844;28;20048;-59
2021/06/27 06:12:51;;;;;;;22.45;11.13;;;;;;;;;;5002784;28;20054;-59
2021/06/27 06:15:19;;;;;;;25.58;12.10;;;;;;;;;;5004452;28;20038;-58
2021/06/27 06:17:45;;;;;;;22.27;12.00;;;;;;;;;;4998668;28;20057;-59
2021/06/27 06:20:13;;;;;;;20.55;10.98;;;;;;;;;;5000653;28;20328;-59
2021/06/27 06:22:41;;;;;;;21.80;12.45;;;;;;;;;;4998609;28;20092;-59
2021/06/27 06:25:08;;;;;;;20.98;11.85;;;;;;;;;;5005587;28;20050;-59
2021/06/27 06:27:35;;;;;;;21.08;10.60;;;;;;;;;;4999484;28;20054;-59
2021/06/27 06:30:01;;;;;;;24.02;11.80;;;;;;;;;;5002773;28;20100;-59
2021/06/27 06:32:29;;;;;;;20.90;11.85;;;;;;;;;;4999809;28;20043;-59
2021/06/27 06:34:56;;;;;;;25.00;11.48;;;;;;;;;;5009336;28;20126;-59
2021/06/27 06:37:22;;;;;;;22.75;11.38;;;;;;;;;;5003982;28;20041;-57
2021/06/27 06:39:49;;;;;;;21.85;11.20;;;;;;;;;;5005488;28;20054;-59
2021/06/27 06:42:15;;;;;;;17.10;9.05;;;;;;;;;;4997959;28;20120;-59
2021/06/27 06:44:42;;;;;;;18.25;10.73;;;;;;;;;;5000218;28;20098;-59
2021/06/27 06:47:08;;;;;;;18.42;10.82;;;;;;;;;;4998879;28;20044;-57
2021/06/27 06:49:36;;;;;;;24.17;10.63;;;;;;;;;;5020189;28;20053;-59
2021/06/27 06:52:03;;;;;;;20.20;10.02;;;;;;;;;;5001804;28;20046;-59
2021/06/27 06:54:29;;;;;;;20.10;10.48;;;;;;;;;;5010611;28;20104;-59
2021/06/27 06:56:56;;;;;;;18.17;10.05;;;;;;;;;;5001499;28;20038;-59
2021/06/27 06:59:22;;;;;;;25.23;10.10;;;;;;;;;;5002768;28;20045;-58
2021/06/27 07:01:49;;;;;;;16.48;9.82;;;;;;;;;;5006724;28;20045;-59
2021/06/27 07:04:15;;;;;;;19.77;10.13;;;;;;;;;;5019354;28;20053;-59
2021/06/27 07:06:44;;;;;;;20.92;11.15;;;;;;;;;;5022673;28;20045;-59
2021/06/27 07:09:10;;;;;;;16.77;9.48;;;;;;;;;;5017898;28;20042;-58
2021/06/27 07:11:37;;;;;;;19.17;9.80;;;;;;;;;;5025308;28;20053;-58
2021/06/27 07:14:04;;;;;;;18.80;9.65;;;;;;;;;;5019139;28;20061;-59
2021/06/27 07:16:30;;;;;;;21.80;8.95;;;;;;;;;;5023814;28;20119;-58
2021/06/27 07:18:59;;;;;;;17.92;9.60;;;;;;;;;;5018694;28;20180;-59
2021/06/27 07:21:26;;;;;;;18.23;8.85;;;;;;;;;;5021083;28;20038;-59
2021/06/27 07:23:58;;;;;;;15.07;9.05;;;;;;;;;;5020573;28;20049;-60
2021/06/27 07:26:25;;;;;;;19.73;9.48;;;;;;;;;;5021920;28;20057;-59
2021/06/27 07:28:51;;;;;;;17.92;9.40;;;;;;;;;;5020693;28;20045;-59
2021/06/27 07:31:18;;;;;;;16.02;8.88;;;;;;;;;;5022948;28;20061;-59
2021/06/27 07:33:45;;;;;;;24.92;9.45;;;;;;;;;;5021181;28;20049;-59
2021/06/27 07:36:13;;;;;;;16.00;8.88;;;;;;;;;;5022646;28;20046;-59
2021/06/27 07:38:40;;;;;;;19.10;10.00;;;;;;;;;;5023230;28;20041;-59
2021/06/27 07:41:08;;;;;;;19.92;10.45;;;;;;;;;;5007559;28;20038;-59
2021/06/27 07:43:36;;;;;;;20.90;10.20;;;;;;;;;;5002457;28;20054;-58
2021/06/27 07:46:02;;;;;;;16.35;9.35;;;;;;;;;;5005158;28;20052;-58
2021/06/27 07:48:29;;;;;;;19.23;10.40;;;;;;;;;;5004274;28;20086;-58
2021/06/27 07:50:55;;;;;;;17.40;9.07;;;;;;;;;;4997251;28;20034;-59
2021/06/27 07:53:25;;;;;;;22.35;9.70;;;;;;;;;;4996155;28;20050;-60
2021/06/27 07:55:52;;;;;;;15.07;9.38;;;;;;;;;;4994950;28;20054;-59
2021/06/27 07:58:20;;;;;;;17.38;9.70;;;;;;;;;;4996636;28;20052;-58
2021/06/27 08:00:46;;;;;;;18.07;9.53;;;;;;;;;;4991054;28;20045;-59
2021/06/27 08:03:12;;;;;;;18.88;9.70;;;;;;;;;;5000168;28;20279;-58
2021/06/27 08:05:39;;;;;;;16.92;8.95;;;;;;;;;;5022554;28;20053;-59
2021/06/27 08:08:05;;;;;;;16.60;8.95;;;;;;;;;;5022469;28;20107;-59
2021/06/27 08:10:32;;;;;;;14.77;8.43;;;;;;;;;;5020673;28;20157;-59
2021/06/27 08:12:59;;;;;;;14.88;8.90;;;;;;;;;;5021407;28;20118;-59
2021/06/27 08:15:27;;;;;;;17.52;8.90;;;;;;;;;;5018631;28;20049;-59
2021/06/27 08:18:00;;;;;;;15.30;9.05;;;;;;;;;;5042213;28;20045;-59
2021/06/27 08:20:27;;;;;;;29.83;16.77;;;;;;;;;;5010530;28;20053;-59
2021/06/27 08:22:54;;;;;;;16.25;9.82;;;;;;;;;;5041177;28;20057;-59
2021/06/27 08:25:21;;;;;;;15.27;9.07;;;;;;;;;;5043210;28;20069;-59
2021/06/27 08:27:47;;;;;;;13.88;8.30;;;;;;;;;;5039450;28;20037;-59
2021/06/27 08:30:15;;;;;;;17.17;9.40;;;;;;;;;;5043152;28;20053;-59
2021/06/27 08:32:44;;;;;;;15.43;9.40;;;;;;;;;;5056594;28;20060;-59
2021/06/27 08:35:11;;;;;;;13.65;8.95;;;;;;;;;;5045246;28;20029;-58
2021/06/27 08:37:40;;;;;;;14.93;8.65;;;;;;;;;;5037652;28;20052;-57
2021/06/27 08:40:07;;;;;;;15.15;8.13;;;;;;;;;;5042243;28;20056;-59
2021/06/27 08:42:34;;;;;;;14.65;8.30;;;;;;;;;;5054889;28;20146;-59
2021/06/27 08:45:00;;;;;;;17.02;8.50;;;;;;;;;;5045057;28;20045;-57
2021/06/27 08:47:27;;;;;;;16.10;9.50;;;;;;;;;;5061915;28;20044;-59
2021/06/27 08:49:55;;;;;;;14.27;8.70;;;;;;;;;;5043032;28;20069;-59
2021/06/27 08:52:23;;;;;;;15.02;8.40;;;;;;;;;;5039450;28;20041;-59
2021/06/27 08:54:51;;;;;;;17.02;9.25;;;;;;;;;;5042525;28;20044;-58
2021/06/27 08:57:20;;;;;;;15.27;8.45;;;;;;;;;;5058474;28;20031;-59
2021/06/27 08:59:47;;;;;;;16.45;8.55;;;;;;;;;;5043314;28;20067;-58
2021/06/27 09:02:13;;;;;;;16.35;8.07;;;;;;;;;;5039542;28;20044;-59
2021/06/27 09:04:41;;;;;;;15.32;8.15;;;;;;;;;;5055149;28;20041;-59
2021/06/27 09:07:31;;;;;;;15.50;8.82;;;;;;;;;;5044180;28;20064;-60
2021/06/27 09:09:58;;;;;;;15.70;8.50;;;;;;;;;;5042118;28;20033;-60
2021/06/27 09:12:25;;;;;;;16.20;8.45;;;;;;;;;;5041454;28;20110;-59
2021/06/27 09:14:54;;;;;;;12.75;7.40;;;;;;;;;;5043144;28;20045;-59
2021/06/27 09:17:23;;;;;;;15.23;9.00;;;;;;;;;;5043579;28;20045;-59
2021/06/27 09:20:04;;;;;;;13.75;8.00;;;;;;;;;;5037746;28;20089;-59
2021/06/27 09:22:34;;;;;;;13.55;8.18;;;;;;;;;;5043516;28;20055;-59
2021/06/27 09:25:14;;;;;;;13.98;6.93;;;;;;;;;;5042689;28;20049;-59
2021/06/27 09:27:40;;;;;;;14.45;7.72;;;;;;;;;;5045620;28;20053;-57
2021/06/27 09:30:14;;;;;;;13.20;7.28;;;;;;;;;;5043228;28;20042;-60
2021/06/27 09:32:50;;;;;;;14.75;8.40;;;;;;;;;;5047684;28;20057;-60
2021/06/27 09:35:34;;;;;;;12.88;7.18;;;;;;;;;;5039555;28;20157;-59
2021/06/27 09:38:16;;;;;;;10.82;6.55;;;;;;;;;;5042183;28;20087;-58
2021/06/27 09:40:44;;;;;;;14.57;7.25;;;;;;;;;;5038343;28;20048;-59
2021/06/27 09:43:10;;;;;;;10.63;6.20;;;;;;;;;;5043135;28;20037;-57
2021/06/27 09:45:44;;;;;;;10.23;6.00;;;;;;;;;;5055033;28;20094;-59
2021/06/27 09:48:11;;;;;;;9.82;5.50;;;;;;;;;;5042175;28;20045;-59
2021/06/27 09:50:38;;;;;;;9.40;5.53;;;;;;;;;;5039636;28;20059;-59
2021/06/27 09:53:04;;;;;;;11.45;6.40;;;;;;;;;;5042757;28;20033;-59
2021/06/27 09:55:31;;;;;;;11.23;5.63;;;;;;;;;;5041104;28;20048;-59
2021/06/27 09:58:12;;;;;;;15.55;5.85;;;;;;;;;;5043087;28;20047;-59
2021/06/27 10:00:40;;;;;;;10.95;4.80;;;;;;;;;;5040017;28;20130;-59
2021/06/27 10:03:10;;;;;;;10.57;5.70;;;;;;;;;;5042910;28;20053;-59
2021/06/27 10:05:37;;;;;;;8.63;5.43;;;;;;;;;;5034917;28;20037;-59
2021/06/27 10:08:03;;;;;;;13.02;5.93;;;;;;;;;;5044427;28;20039;-58
2021/06/27 10:10:31;;;;;;;11.95;5.72;;;;;;;;;;5039086;28;20033;-59
2021/06/27 10:12:57;;;;;;;10.20;5.40;;;;;;;;;;5041630;28;20049;-58
2021/06/27 10:15:24;;;;;;;13.18;5.53;;;;;;;;;;5027267;28;20129;-59
2021/06/27 10:17:52;;;;;;;10.07;5.07;;;;;;;;;;5059264;28;20091;-57
2021/06/27 10:20:18;;;;;;;9.32;5.40;;;;;;;;;;5054289;28;20037;-59
2021/06/27 10:22:45;;;;;;;7.78;4.53;;;;;;;;;;5038761;28;20049;-57
2021/06/27 10:25:13;;;;;;;9.15;4.50;;;;;;;;;;5029883;28;20115;-58
2021/06/27 10:27:40;;;;;;;9.25;4.65;;;;;;;;;;5023531;28;20037;-59
2021/06/27 10:30:07;;;;;;;8.60;3.97;;;;;;;;;;5025753;28;20033;-58
2021/06/27 10:32:39;;;;;;;7.13;4.20;;;;;;;;;;5038275;28;20061;-58
2021/06/27 10:35:09;;;;;;;7.30;4.18;;;;;;;;;;5023928;28;20053;-58
2021/06/27 10:37:38;;;;;;;8.63;4.15;;;;;;;;;;5032962;28;20037;-59
2021/06/27 10:40:05;;;;;;;10.48;4.53;;;;;;;;;;5041300;28;20052;-59
2021/06/27 10:42:53;;;;;;;8.90;4.17;;;;;;;;;;5028039;28;20107;-59
2021/06/27 10:45:24;;;;;;;7.65;4.10;;;;;;;;;;5025687;28;20045;-59
2021/06/27 10:47:50;;;;;;;8.35;4.30;;;;;;;;;;5021111;28;20056;-59
2021/06/27 10:50:21;;;;;;;9.70;5.55;;;;;;;;;;5025236;28;20040;-60
2021/06/27 10:52:58;;;;;;;10.43;5.75;;;;;;;;;;5063148;28;20055;-57
2021/06/27 10:55:28;;;;;;;11.27;4.77;;;;;;;;;;5025380;28;20041;-59
2021/06/27 10:57:56;;;;;;;9.68;4.68;;;;;;;;;;5020090;28;20037;-59
2021/06/27 11:00:23;;;;;;;;;;;;;;;;;;5026125;28;20049;-59
2021/06/27 11:02:50;;;;;;;8.23;4.13;;;;;;;;;;5028025;28;19935;-55
2021/06/27 11:05:43;;;;;;;7.20;3.83;;;;;;;;;;5056880;28;20033;-59
2021/06/27 11:08:13;;;;;;;7.88;3.55;;;;;;;;;;5040844;28;20055;-58
2021/06/27 11:10:40;;;;;;;7.57;4.40;;;;;;;;;;5044431;28;20041;-59
2021/06/27 11:13:14;;;;;;;6.55;3.83;;;;;;;;;;5026022;28;20049;-57
2021/06/27 11:15:59;;;;;;;7.70;4.05;;;;;;;;;;5041122;28;20049;-59
2021/06/27 11:18:30;;;;;;;7.13;4.10;;;;;;;;;;5039363;28;20045;-58
2021/06/27 11:21:25;;;;;;;9.55;4.00;;;;;;;;;;5025260;28;20045;-58
2021/06/27 11:23:57;;;;;;;13.80;4.38;;;;;;;;;;4973882;28;20081;-59
2021/06/27 11:26:42;;;;;;;10.98;4.30;;;;;;;;;;5040751;28;20036;-58
2021/06/27 11:29:24;;;;;;;9.77;4.13;;;;;;;;;;5022691;28;20122;-58
2021/06/27 11:31:51;;;;;;;11.90;3.80;;;;;;;;;;5001395;28;20041;-58
2021/06/27 11:34:24;;;;;;;7.37;3.83;;;;;;;;;;5034896;28;20120;-56
2021/06/27 11:36:52;;;;;;;8.75;4.32;;;;;;;;;;5034708;28;20057;-54
2021/06/27 11:39:33;;;;;;;8.32;4.40;;;;;;;;;;5032266;28;20131;-55
2021/06/27 11:42:01;;;;;;;8.52;4.13;;;;;;;;;;5023250;28;20044;-57
2021/06/27 11:44:28;;;;;;;10.68;4.65;;;;;;;;;;5017453;28;20051;-56
2021/06/27 11:46:54;;;;;;;8.25;3.75;;;;;;;;;;5022535;28;20118;-56
2021/06/27 11:49:27;;;;;;;7.22;3.95;;;;;;;;;;5006959;28;20037;-59
2021/06/27 11:51:54;;;;;;;8.40;4.30;;;;;;;;;;5024432;28;20049;-59
2021/06/27 11:54:22;;;;;;;8.15;3.90;;;;;;;;;;5021816;28;20048;-58
2021/06/27 11:56:55;;;;;;;9.05;4.18;;;;;;;;;;5044240;28;20076;-59
2021/06/27 11:59:25;;;;;;;9.57;3.80;;;;;;;;;;5037520;28;20049;-57
2021/06/27 12:02:12;;;;;;;11.23;4.82;;;;;;;;;;5039711;28;20052;-60
2021/06/27 12:04:39;;;;;;;6.82;3.83;;;;;;;;;;5035491;28;20057;-58
2021/06/27 12:07:21;;;;;;;7.93;3.80;;;;;;;;;;5039063;28;20041;-59
2021/06/27 12:09:47;;;;;;;5.90;3.55;;;;;;;;;;5029387;28;20049;-59
2021/06/27 12:12:14;;;;;;;9.30;4.13;;;;;;;;;;5041737;28;20040;-57
2021/06/27 12:14:42;;;;;;;5.93;3.63;;;;;;;;;;5040576;28;20033;-56
2021/06/27 12:17:22;;;;;;;9.05;4.25;;;;;;;;;;5024383;28;20152;-56
2021/06/27 12:19:51;;;;;;;6.47;3.30;;;;;;;;;;5001779;28;20066;-57
2021/06/27 12:22:21;;;;;;;7.35;3.67;;;;;;;;;;5046907;28;20078;-57
2021/06/27 12:24:48;;;;;;;7.18;3.85;;;;;;;;;;5024816;28;20065;-56
2021/06/27 12:27:15;;;;;;;6.38;3.53;;;;;;;;;;5036284;28;20045;-54
2021/06/27 12:29:52;;;;;;;6.57;3.70;;;;;;;;;;5039335;28;20114;-57
2021/06/27 12:32:19;;;;;;;9.60;3.67;;;;;;;;;;5036988;28;20037;-55
2021/06/27 12:34:46;;;;;;;5.53;2.88;;;;;;;;;;5040400;28;20060;-56
2021/06/27 12:37:12;;;;;;;8.15;3.78;;;;;;;;;;5036384;28;20141;-56
2021/06/27 12:39:39;;;;;;;6.93;3.40;;;;;;;;;;5042581;28;20033;-56
2021/06/27 12:42:09;;;;;;;7.28;3.85;;;;;;;;;;5037470;28;20053;-57
2021/06/27 12:44:36;;;;;;;8.52;3.85;;;;;;;;;;5044309;28;20115;-57
2021/06/27 12:47:04;;;;;;;5.97;3.25;;;;;;;;;;5041706;28;20045;-56
2021/06/27 12:49:33;;;;;;;6.97;3.08;;;;;;;;;;5045809;28;20037;-56
2021/06/27 12:52:02;;;;;;;5.85;3.10;;;;;;;;;;5038660;28;20045;-57
2021/06/27 12:54:31;;;;;;;7.47;3.67;;;;;;;;;;5043690;28;20119;-57
2021/06/27 12:57:01;;;;;;;6.00;3.03;;;;;;;;;;5039200;28;20033;-58
2021/06/27 12:59:43;;;;;;;6.07;3.58;;;;;;;;;;5042864;28;20175;-56
2021/06/27 13:02:12;;;;;;;6.60;3.60;;;;;;;;;;5040559;28;20037;-57
2021/06/27 13:04:39;;;;;;;9.15;4.00;;;;;;;;;;5042312;28;20056;-57
2021/06/27 13:07:07;;;;;;;5.60;3.50;;;;;;;;;;5043434;28;20040;-57
2021/06/27 13:09:35;;;;;;;8.18;3.67;;;;;;;;;;5046959;28;20029;-56
2021/06/27 13:12:08;;;;;;;11.52;4.13;;;;;;;;;;5054777;28;20047;-56
2021/06/27 13:14:37;;;;;;;9.85;4.00;;;;;;;;;;5039886;28;20125;-55
2021/06/27 13:17:04;;;;;;;6.40;3.55;;;;;;;;;;5042123;28;20041;-57
2021/06/27 13:19:32;;;;;;;6.70;3.67;;;;;;;;;;5040190;28;20138;-55
2021/06/27 13:21:59;;;;;;;;;;;;;;;;;;5036629;28;20033;-56
2021/06/27 13:24:26;;;;;;;6.15;3.33;;;;;;;;;;5037747;28;19940;-56
2021/06/27 13:26:52;;;;;;;7.25;4.10;;;;;;;;;;5041837;28;20084;-55
2021/06/27 13:29:20;;;;;;;9.43;4.07;;;;;;;;;;5039893;28;20055;-56
2021/06/27 13:31:49;;;;;;;7.43;3.50;;;;;;;;;;5042819;28;20060;-55
2021/06/27 13:34:20;;;;;;;6.13;3.30;;;;;;;;;;5038193;28;20126;-54
2021/06/27 13:36:54;;;;;;;7.75;3.10;;;;;;;;;;5042089;28;20048;-57
2021/06/27 13:39:23;;;;;;;6.10;3.72;;;;;;;;;;5040973;28;20052;-55
2021/06/27 13:41:49;;;;;;;9.95;3.92;;;;;;;;;;5042869;28;20041;-54
2021/06/27 13:44:16;;;;;;;5.57;3.20;;;;;;;;;;5039174;28;20073;-56
2021/06/27 13:46:42;;;;;;;7.72;3.85;;;;;;;;;;5041527;28;20045;-51
2021/06/27 13:49:09;;;;;;;6.45;3.85;;;;;;;;;;5039571;28;20117;-54
2021/06/27 13:51:36;;;;;;;6.47;3.42;;;;;;;;;;5044683;28;20096;-51
2021/06/27 13:54:06;;;;;;;6.28;3.70;;;;;;;;;;5023684;28;20049;-55
2021/06/27 13:56:33;;;;;;;7.95;4.20;;;;;;;;;;5023202;28;20182;-56
2021/06/27 13:59:00;;;;;;;11.30;4.00;;;;;;;;;;5042544;28;20025;-53
2021/06/27 14:01:28;;;;;;;5.53;3.45;;;;;;;;;;5030992;28;20061;-56
2021/06/27 14:03:54;;;;;;;7.15;3.42;;;;;;;;;;5020921;28;20058;-56
2021/06/27 14:06:24;;;;;;;7.97;3.83;;;;;;;;;;5046310;28;20060;-53
2021/06/27 14:08:51;;;;;;;5.78;3.28;;;;;;;;;;5023723;28;20119;-56
2021/06/27 14:11:19;;;;;;;5.63;3.65;;;;;;;;;;5023463;28;20059;-56
2021/06/27 14:13:46;;;;;;;;;;;;;;;;;;5043432;28;20127;-55
2021/06/27 14:16:12;;;;;;;9.65;4.00;;;;;;;;;;5030230;28;19921;-54
2021/06/27 14:18:39;;;;;;;10.35;3.63;;;;;;;;;;5025986;28;20069;-53
2021/06/27 14:21:07;;;;;;;6.95;3.95;;;;;;;;;;5021758;28;20049;-53
2021/06/27 14:23:34;;;;;;;5.47;3.15;;;;;;;;;;5025768;28;20041;-55
2021/06/27 14:26:00;;;;;;;11.88;4.05;;;;;;;;;;5024600;28;20037;-56
2021/06/27 14:28:30;;;;;;;6.55;3.17;;;;;;;;;;5044540;28;20159;-57
2021/06/27 14:30:57;;;;;;;5.45;3.45;;;;;;;;;;5040549;28;20049;-58
2021/06/27 14:33:29;;;;;;;8.40;3.65;;;;;;;;;;5026557;28;20123;-57
2021/06/27 14:35:56;;;;;;;6.63;3.42;;;;;;;;;;5022179;28;20033;-57
2021/06/27 14:38:24;;;;;;;5.40;3.10;;;;;;;;;;5025295;28;20045;-57